Time;durP1;ratioP1;P1;durP2;ratioP2;P2;SDS_P1;SDS_P2;PMS_P1;PMS_P2;Temp;Humidity;BMP_temperature;BMP_pressure;BME280_temperature;BME280_humidity;BME280_pressure;Samples;Min_cycle;Max_cycle;Signal;HPM_P1;HPM_P2
2023/07/05 00:00:53;;;;;;;5.90;2.70;;;;;;;;;;5021427;28;20044;-71
2023/07/05 00:03:19;;;;;;;5.97;2.65;;;;;;;;;;5026983;28;20048;-70
2023/07/05 00:05:45;;;;;;;4.15;3.17;;;;;;;;;;5023833;28;20045;-71
2023/07/05 00:08:11;;;;;;;7.38;3.13;;;;;;;;;;5028755;28;20112;-70
2023/07/05 00:10:37;;;;;;;6.03;2.97;;;;;;;;;;5027885;28;20124;-70
2023/07/05 00:13:03;;;;;;;5.22;3.08;;;;;;;;;;5025439;28;20044;-70
2023/07/05 00:15:30;;;;;;;3.60;2.65;;;;;;;;;;5021199;28;20050;-70
2023/07/05 00:17:56;;;;;;;6.97;2.72;;;;;;;;;;5028850;28;20482;-71
2023/07/05 00:20:23;;;;;;;7.40;3.88;;;;;;;;;;5025050;28;20394;-71
2023/07/05 00:22:49;;;;;;;7.30;3.00;;;;;;;;;;5025930;28;20389;-71
2023/07/05 00:25:16;;;;;;;7.20;3.55;;;;;;;;;;5027173;28;20037;-71
2023/07/05 00:27:42;;;;;;;4.90;3.53;;;;;;;;;;5042427;28;20435;-71
2023/07/05 00:30:08;;;;;;;5.90;3.60;;;;;;;;;;5031150;28;20048;-70
2023/07/05 00:32:34;;;;;;;8.70;3.83;;;;;;;;;;5024931;28;20059;-70
2023/07/05 00:35:01;;;;;;;9.00;3.72;;;;;;;;;;5022616;28;20073;-71
2023/07/05 00:37:27;;;;;;;5.07;2.67;;;;;;;;;;5022979;28;20054;-71
2023/07/05 00:39:53;;;;;;;6.75;3.35;;;;;;;;;;5027445;28;20061;-71
2023/07/05 00:42:19;;;;;;;9.63;3.58;;;;;;;;;;5028054;28;20096;-71
2023/07/05 00:45:04;;;;;;;11.30;4.35;;;;;;;;;;5018365;28;20091;-71
2023/07/05 00:47:32;;;;;;;7.78;3.30;;;;;;;;;;5022227;28;20179;-71
2023/07/05 00:50:01;;;;;;;6.38;3.45;;;;;;;;;;5025441;28;20054;-71
2023/07/05 00:52:28;;;;;;;6.43;3.95;;;;;;;;;;5027833;28;20804;-71
2023/07/05 00:54:56;;;;;;;11.20;3.65;;;;;;;;;;5027505;28;20114;-71
2023/07/05 00:57:24;;;;;;;6.93;3.30;;;;;;;;;;5031781;28;20411;-71
2023/07/05 00:59:56;;;;;;;7.50;3.55;;;;;;;;;;5026408;28;20038;-71
2023/07/05 01:02:22;;;;;;;7.35;3.25;;;;;;;;;;5031431;28;20103;-71
2023/07/05 01:04:49;;;;;;;6.22;3.92;;;;;;;;;;5032418;28;20396;-71
2023/07/05 01:07:15;;;;;;;5.72;3.03;;;;;;;;;;5040961;28;20059;-71
2023/07/05 01:09:46;;;;;;;9.38;4.05;;;;;;;;;;5028901;28;20124;-71
2023/07/05 01:12:18;;;;;;;7.07;3.92;;;;;;;;;;5032998;28;20508;-71
2023/07/05 01:14:50;;;;;;;14.45;3.75;;;;;;;;;;5029755;28;20053;-70
2023/07/05 01:17:39;;;;;;;9.70;4.15;;;;;;;;;;5024121;28;20076;-71
2023/07/05 01:20:22;;;;;;;6.85;4.25;;;;;;;;;;5022694;28;20444;-71
2023/07/05 01:22:48;;;;;;;6.20;3.72;;;;;;;;;;5034767;28;20363;-70
2023/07/05 01:25:32;;;;;;;5.70;4.00;;;;;;;;;;5031869;28;20133;-71
2023/07/05 01:28:02;;;;;;;9.80;4.72;;;;;;;;;;5031145;28;20041;-71
2023/07/05 01:30:35;;;;;;;7.10;3.55;;;;;;;;;;5030832;28;20124;-71
2023/07/05 01:33:03;;;;;;;9.32;4.97;;;;;;;;;;5038739;28;20121;-70
2023/07/05 01:35:39;;;;;;;6.25;3.83;;;;;;;;;;5022689;28;20765;-70
2023/07/05 01:38:06;;;;;;;11.13;4.45;;;;;;;;;;5028713;28;20467;-71
2023/07/05 01:40:32;;;;;;;8.68;4.95;;;;;;;;;;5030583;28;20037;-70
2023/07/05 01:43:00;;;;;;;6.95;3.97;;;;;;;;;;5030649;28;20175;-70
2023/07/05 01:45:40;;;;;;;12.50;4.32;;;;;;;;;;5036118;28;20092;-71
2023/07/05 01:48:06;;;;;;;7.80;3.42;;;;;;;;;;5023685;28;20066;-71
2023/07/05 01:50:42;;;;;;;5.82;4.00;;;;;;;;;;5030732;28;20084;-70
2023/07/05 01:53:11;;;;;;;7.65;4.80;;;;;;;;;;5025064;28;20535;-70
2023/07/05 01:55:43;;;;;;;9.63;4.28;;;;;;;;;;5042992;28;20373;-70
2023/07/05 01:58:16;;;;;;;8.52;3.80;;;;;;;;;;5024191;28;20111;-70
2023/07/05 02:00:43;;;;;;;4.88;3.65;;;;;;;;;;5030074;28;20037;-70
2023/07/05 02:03:13;;;;;;;8.15;4.55;;;;;;;;;;5028727;28;20419;-70
2023/07/05 02:05:39;;;;;;;10.80;4.63;;;;;;;;;;5031241;28;20087;-70
2023/07/05 02:08:06;;;;;;;6.35;4.13;;;;;;;;;;5021166;28;20103;-70
2023/07/05 02:10:32;;;;;;;10.77;4.57;;;;;;;;;;5028874;28;20083;-70
2023/07/05 02:12:59;;;;;;;7.25;4.60;;;;;;;;;;5025878;28;20052;-70
2023/07/05 02:15:25;;;;;;;9.18;4.78;;;;;;;;;;5027598;28;20057;-70
2023/07/05 02:17:52;;;;;;;7.72;4.30;;;;;;;;;;5029816;28;20049;-70
2023/07/05 02:20:18;;;;;;;10.75;3.92;;;;;;;;;;5031818;28;20030;-70
2023/07/05 02:22:44;;;;;;;9.35;4.70;;;;;;;;;;5031147;28;20472;-70
2023/07/05 02:25:10;;;;;;;7.43;4.20;;;;;;;;;;5042754;28;20053;-70
2023/07/05 02:27:37;;;;;;;16.48;4.93;;;;;;;;;;5027073;28;20482;-70
2023/07/05 02:30:04;;;;;;;9.10;4.63;;;;;;;;;;5031666;28;20038;-70
2023/07/05 02:32:30;;;;;;;11.43;4.40;;;;;;;;;;5026399;28;20084;-70
2023/07/05 02:34:59;;;;;;;8.40;4.78;;;;;;;;;;5026490;28;20033;-70
2023/07/05 02:37:26;;;;;;;6.53;4.38;;;;;;;;;;5023774;28;20251;-70
2023/07/05 02:39:53;;;;;;;9.77;4.22;;;;;;;;;;5026900;28;20040;-70
2023/07/05 02:42:19;;;;;;;7.63;5.15;;;;;;;;;;5029754;28;20037;-71
2023/07/05 02:44:49;;;;;;;6.97;4.70;;;;;;;;;;5025399;28;20037;-70
2023/07/05 02:47:17;;;;;;;6.90;5.15;;;;;;;;;;5038588;28;20042;-70
2023/07/05 02:49:43;;;;;;;7.20;5.28;;;;;;;;;;5019466;28;20034;-71
2023/07/05 02:52:09;;;;;;;8.98;5.65;;;;;;;;;;5029210;28;20087;-70
2023/07/05 02:54:35;;;;;;;10.18;5.28;;;;;;;;;;5033874;28;20065;-70
2023/07/05 02:57:02;;;;;;;9.07;5.40;;;;;;;;;;5025391;28;20198;-71
2023/07/05 02:59:28;;;;;;;6.18;5.15;;;;;;;;;;5025151;28;20053;-70
2023/07/05 03:01:54;;;;;;;8.15;5.32;;;;;;;;;;5026323;28;20475;-70
2023/07/05 03:04:20;;;;;;;7.97;5.28;;;;;;;;;;5017272;28;20129;-70
2023/07/05 03:06:46;;;;;;;8.68;6.07;;;;;;;;;;5022752;28;20171;-70
2023/07/05 03:09:12;;;;;;;8.57;5.45;;;;;;;;;;5027146;28;20095;-70
2023/07/05 03:11:38;;;;;;;6.82;5.30;;;;;;;;;;5020966;28;20045;-70
2023/07/05 03:14:04;;;;;;;14.07;7.45;;;;;;;;;;5022166;28;20056;-70
2023/07/05 03:16:31;;;;;;;10.25;5.43;;;;;;;;;;5026508;28;20083;-70
2023/07/05 03:18:57;;;;;;;10.30;6.35;;;;;;;;;;5024196;28;20072;-70
2023/07/05 03:21:23;;;;;;;10.10;6.55;;;;;;;;;;5029004;28;20087;-70
2023/07/05 03:23:49;;;;;;;8.52;5.85;;;;;;;;;;5020541;28;20681;-70
2023/07/05 03:26:15;;;;;;;7.85;5.68;;;;;;;;;;5027075;28;20043;-70
2023/07/05 03:28:42;;;;;;;8.88;5.53;;;;;;;;;;5021312;28;20081;-70
2023/07/05 03:31:15;;;;;;;9.23;6.20;;;;;;;;;;5031622;28;20436;-70
2023/07/05 03:33:41;;;;;;;12.55;6.20;;;;;;;;;;5021951;28;20092;-70
2023/07/05 03:36:12;;;;;;;9.25;6.65;;;;;;;;;;5027489;28;20033;-70
2023/07/05 03:38:38;;;;;;;8.75;5.25;;;;;;;;;;5028049;28;20041;-70
2023/07/05 03:41:06;;;;;;;12.80;6.78;;;;;;;;;;5028240;28;20129;-70
2023/07/05 03:43:35;;;;;;;7.55;6.05;;;;;;;;;;5040957;28;20056;-70
2023/07/05 03:46:02;;;;;;;10.73;6.75;;;;;;;;;;5029511;28;20048;-70
2023/07/05 03:48:29;;;;;;;8.65;5.80;;;;;;;;;;5024251;28;20073;-70
2023/07/05 03:50:59;;;;;;;8.23;6.53;;;;;;;;;;5023315;28;20388;-70
2023/07/05 03:53:25;;;;;;;9.00;5.55;;;;;;;;;;5035263;28;20638;-70
2023/07/05 03:55:52;;;;;;;10.18;6.07;;;;;;;;;;5025902;28;20540;-69
2023/07/05 03:58:18;;;;;;;11.55;7.00;;;;;;;;;;5023336;28;20045;-70
2023/07/05 04:00:45;;;;;;;10.65;6.25;;;;;;;;;;5042899;28;20037;-70
2023/07/05 04:03:12;;;;;;;9.55;6.65;;;;;;;;;;5030227;28;20769;-70
2023/07/05 04:05:38;;;;;;;10.82;5.75;;;;;;;;;;5024094;28;20094;-70
2023/07/05 04:08:04;;;;;;;13.70;7.35;;;;;;;;;;5022070;28;20091;-70
2023/07/05 04:10:30;;;;;;;9.95;7.03;;;;;;;;;;5027896;28;20463;-69
2023/07/05 04:12:57;;;;;;;11.82;7.10;;;;;;;;;;5016910;28;20041;-69
2023/07/05 04:15:23;;;;;;;9.27;6.20;;;;;;;;;;5036186;28;20053;-70
2023/07/05 04:17:49;;;;;;;7.45;6.65;;;;;;;;;;5040756;28;20049;-70
2023/07/05 04:20:15;;;;;;;9.57;7.03;;;;;;;;;;5021928;28;20041;-70
2023/07/05 04:22:42;;;;;;;8.63;6.13;;;;;;;;;;5017299;28;20083;-70
2023/07/05 04:25:09;;;;;;;9.32;6.35;;;;;;;;;;5027881;28;20084;-69
2023/07/05 04:27:36;;;;;;;8.23;6.30;;;;;;;;;;5026563;28;20182;-69
2023/07/05 04:30:03;;;;;;;9.57;6.93;;;;;;;;;;5027137;28;20499;-70
2023/07/05 04:32:30;;;;;;;8.32;5.82;;;;;;;;;;5033842;28;20068;-70
2023/07/05 04:34:56;;;;;;;8.38;6.00;;;;;;;;;;5025170;28;20696;-69
2023/07/05 04:37:24;;;;;;;9.18;5.55;;;;;;;;;;5029894;28;20482;-70
2023/07/05 04:39:50;;;;;;;10.82;5.90;;;;;;;;;;5027051;28;20037;-70
2023/07/05 04:42:16;;;;;;;8.15;5.35;;;;;;;;;;5019688;28;20364;-70
2023/07/05 04:44:42;;;;;;;9.95;6.05;;;;;;;;;;5027836;28;20056;-69
2023/07/05 04:47:08;;;;;;;9.48;5.90;;;;;;;;;;5021205;28;20127;-69
2023/07/05 04:49:34;;;;;;;6.55;4.65;;;;;;;;;;5020961;28;20032;-69
2023/07/05 04:52:00;;;;;;;10.85;5.70;;;;;;;;;;5019583;28;20049;-70
2023/07/05 04:54:26;;;;;;;5.65;4.65;;;;;;;;;;5015142;28;20045;-69
2023/07/05 04:56:53;;;;;;;8.25;5.50;;;;;;;;;;5034199;28;20387;-69
2023/07/05 04:59:19;;;;;;;6.03;3.95;;;;;;;;;;5022339;28;20045;-69
2023/07/05 05:01:46;;;;;;;7.97;3.97;;;;;;;;;;5016184;28;20549;-70
2023/07/05 05:04:12;;;;;;;5.05;3.10;;;;;;;;;;5019423;28;20052;-69
2023/07/05 05:06:38;;;;;;;4.07;3.08;;;;;;;;;;5022986;28;20045;-70
2023/07/05 05:09:04;;;;;;;5.28;3.38;;;;;;;;;;5023927;28;20080;-69
2023/07/05 05:11:30;;;;;;;4.65;3.17;;;;;;;;;;5024543;28;20636;-69
2023/07/05 05:13:57;;;;;;;4.25;2.35;;;;;;;;;;5012409;28;20042;-69
2023/07/05 05:16:23;;;;;;;4.95;2.60;;;;;;;;;;5017084;28;20042;-69
2023/07/05 05:18:49;;;;;;;5.53;2.80;;;;;;;;;;5013889;28;20496;-69
2023/07/05 05:21:16;;;;;;;7.90;3.08;;;;;;;;;;5025334;28;20117;-69
2023/07/05 05:23:42;;;;;;;8.20;3.50;;;;;;;;;;5039268;28;20121;-69
2023/07/05 05:26:08;;;;;;;6.85;3.65;;;;;;;;;;5024775;28;20544;-69
2023/07/05 05:28:34;;;;;;;6.75;3.50;;;;;;;;;;5031025;28;20045;-69
2023/07/05 05:31:01;;;;;;;6.80;3.67;;;;;;;;;;5039463;28;20124;-70
2023/07/05 05:33:27;;;;;;;4.78;2.72;;;;;;;;;;5028992;28;20128;-70
2023/07/05 05:35:53;;;;;;;7.70;3.55;;;;;;;;;;5025558;28;20042;-69
2023/07/05 05:38:20;;;;;;;5.55;3.63;;;;;;;;;;5022535;28;20045;-69
2023/07/05 05:40:49;;;;;;;9.20;3.80;;;;;;;;;;5026922;28;20033;-69
2023/07/05 05:43:16;;;;;;;4.80;3.55;;;;;;;;;;5024789;28;20049;-69
2023/07/05 05:45:42;;;;;;;6.65;3.58;;;19.30;87.50;;;;;;5038425;28;20125;-69
2023/07/05 05:48:08;;;;;;;4.80;3.40;;;;;;;;;;5023228;28;20468;-69
2023/07/05 05:50:35;;;;;;;10.77;3.33;;;;;;;;;;5027590;28;20044;-69
2023/07/05 05:53:02;;;;;;;9.60;3.70;;;;;;;;;;5029343;28;20448;-69
2023/07/05 05:55:28;;;;;;;9.10;3.58;;;;;;;;;;5043312;28;20100;-69
2023/07/05 05:57:54;;;;;;;5.25;3.45;;;;;;;;;;5027342;28;20042;-69
2023/07/05 06:00:21;;;;;;;6.70;3.50;;;;;;;;;;5031648;28;20045;-69
2023/07/05 06:02:47;;;;;;;6.07;3.97;;;;;;;;;;5025719;28;20041;-69
2023/07/05 06:05:13;;;;;;;4.53;3.53;;;;;;;;;;5028307;28;20116;-69
2023/07/05 06:07:39;;;;;;;4.88;3.50;;;;;;;;;;5027230;28;20120;-69
2023/07/05 06:10:06;;;;;;;6.35;3.38;;;;;;;;;;5027005;28;20033;-69
2023/07/05 06:12:32;;;;;;;8.38;4.20;;;;;;;;;;5027330;28;20044;-69
2023/07/05 06:14:58;;;;;;;6.60;3.55;;;;;;;;;;5027290;28;20107;-69
2023/07/05 06:17:26;;;;;;;7.20;4.22;;;;;;;;;;5024075;28;20115;-69
2023/07/05 06:19:52;;;;;;;7.93;4.18;;;;;;;;;;5036540;28;20045;-69
2023/07/05 06:22:18;;;;;;;5.65;3.70;;;;;;;;;;5037130;28;20041;-70
2023/07/05 06:24:44;;;;;;;4.70;3.30;;;;;;;;;;5026376;28;20421;-70
2023/07/05 06:27:11;;;;;;;6.18;3.83;;;;;;;;;;5020362;28;20042;-70
2023/07/05 06:29:37;;;;;;;5.45;3.25;;;;;;;;;;5023035;28;20056;-69
2023/07/05 06:32:03;;;;;;;4.55;3.20;;;;;;;;;;5036074;28;20034;-70
2023/07/05 06:34:29;;;;;;;6.22;3.13;;;;;;;;;;5017898;28;20049;-69
2023/07/05 06:36:55;;;;;;;7.05;3.70;;;;;;;;;;5025857;28;20045;-69
2023/07/05 06:39:21;;;;;;;5.35;3.08;;;;;;;;;;5039987;28;20034;-69
2023/07/05 06:41:48;;;;;;;5.63;3.40;;;;;;;;;;5046667;28;20498;-69
2023/07/05 06:44:14;;;;;;;6.80;2.60;;;;;;;;;;5025610;28;20049;-69
2023/07/05 06:46:40;;;;;;;9.55;3.70;;;;;;;;;;5022443;28;20044;-70
2023/07/05 06:49:06;;;;;;;8.68;3.08;;;;;;;;;;5030037;28;20041;-69
2023/07/05 06:51:32;;;;;;;7.78;3.22;;;;;;;;;;5022075;28;20256;-69
2023/07/05 06:53:58;;;;;;;5.20;3.15;;;;;;;;;;5003039;28;20043;-69
2023/07/05 06:56:24;;;;;;;8.20;3.40;;;;;;;;;;5024613;28;20041;-70
2023/07/05 06:58:50;;;;;;;8.02;3.35;;;;;;;;;;5030927;28;20038;-64
2023/07/05 07:01:17;;;;;;;10.90;2.88;;;;;;;;;;5044021;28;20041;-68
2023/07/05 07:03:43;;;;;;;7.03;2.65;;;;;;;;;;5023924;28;20343;-68
2023/07/05 07:06:10;;;;;;;5.00;2.72;;;;;;;;;;5015255;28;20045;-68
2023/07/05 07:08:39;;;;;;;5.50;2.75;;;;;;;;;;4995668;28;20111;-68
2023/07/05 07:11:07;;;;;;;5.07;2.58;;;;;;;;;;5004706;28;20060;-68
2023/07/05 07:13:33;;;;;;;5.78;2.40;;;;;;;;;;5001390;28;20160;-69
2023/07/05 07:16:04;;;;;;;5.53;2.55;;;;;;;;;;5031944;28;20129;-69
2023/07/05 07:18:32;;;;;;;7.43;2.90;;;;;;;;;;5032825;28;20057;-68
2023/07/05 07:20:59;;;;;;;5.53;2.17;;;;;;;;;;5019345;28;20533;-68
2023/07/05 07:23:25;;;;;;;4.70;2.78;;;;;;;;;;5040413;28;20060;-69
2023/07/05 07:26:02;;;;;;;6.18;2.20;;;;;;;;;;5022787;28;20678;-68
2023/07/05 07:28:28;;;;;;;6.68;3.00;;;;;;;;;;5019725;28;20068;-68
2023/07/05 07:30:54;;;;;;;4.20;2.55;;;;;;;;;;5027074;28;20040;-68
2023/07/05 07:33:20;;;;;;;3.90;1.83;;;;;;;;;;5020059;28;20110;-68
2023/07/05 07:35:48;;;;;;;3.25;1.27;;;;;;;;;;5025787;28;20045;-68
2023/07/05 07:38:14;;;;;;;2.72;1.75;;;;;;;;;;5015978;28;20145;-68
2023/07/05 07:40:41;;;;;;;5.13;2.03;;;;;;;;;;5023543;28;20037;-68
2023/07/05 07:43:08;;;;;;;3.35;1.60;;;;;;;;;;5023578;28;20123;-68
2023/07/05 07:45:34;;;;;;;2.97;1.60;;;;;;;;;;5039651;28;20049;-68
2023/07/05 07:48:00;;;;;;;1.95;1.10;;;;;;;;;;5000617;28;20038;-68
2023/07/05 07:50:26;;;;;;;3.55;1.17;;;;;;;;;;5019900;28;20478;-68
2023/07/05 07:52:53;;;;;;;1.95;1.00;;;;;;;;;;5033024;28;20088;-69
2023/07/05 07:55:20;;;;;;;2.30;1.10;;;;;;;;;;5029337;28;20131;-68
2023/07/05 07:57:46;;;;;;;3.45;0.93;;;16.30;99.90;;;;;;5012879;28;20095;-69
2023/07/05 08:00:12;;;;;;;2.67;1.20;;;;;;;;;;5039350;28;20053;-69
2023/07/05 08:02:38;;;;;;;2.15;1.08;;;;;;;;;;5019918;28;20037;-68
2023/07/05 08:05:14;;;;;;;1.63;0.80;;;;;;;;;;5023670;28;20046;-69
2023/07/05 08:07:40;;;;;;;1.70;0.80;;;;;;;;;;5019112;28;20487;-68
2023/07/05 08:10:07;;;;;;;3.42;1.30;;;;;;;;;;5029768;28;20059;-68
2023/07/05 08:12:34;;;;;;;1.33;0.77;;;;;;;;;;5015361;28;20046;-68
2023/07/05 08:15:00;;;;;;;1.60;0.77;;;;;;;;;;5023173;28;20049;-68
2023/07/05 08:17:28;;;;;;;3.22;1.08;;;;;;;;;;5019436;28;20037;-68
2023/07/05 08:19:54;;;;;;;1.85;0.90;;;;;;;;;;5025014;28;20041;-68
2023/07/05 08:22:20;;;;;;;2.85;0.90;;;;;;;;;;5024188;28;21166;-68
2023/07/05 08:24:46;;;;;;;2.00;0.90;;;;;;;;;;5027846;28;20045;-68
2023/07/05 08:27:13;;;;;;;2.60;1.38;;;;;;;;;;5023947;28;20128;-68
2023/07/05 08:29:41;;;;;;;2.47;0.90;;;;;;;;;;5023157;28;20041;-69
2023/07/05 08:32:07;;;;;;;3.67;1.35;;;;;;;;;;5045143;28;20147;-68
2023/07/05 08:34:35;;;;;;;4.28;1.10;;;;;;;;;;5038106;28;20133;-69
2023/07/05 08:37:03;;;;;;;2.67;1.13;;;;;;;;;;5022991;28;20044;-68
2023/07/05 08:39:30;;;;;;;5.22;1.20;;;;;;;;;;5027428;28;20041;-69
2023/07/05 08:42:11;;;;;;;13.85;1.90;;;;;;;;;;5023132;28;20073;-68
2023/07/05 08:44:45;;;;;;;3.47;1.35;;;15.40;99.90;;;;;;5032733;28;20034;-69
2023/07/05 08:47:20;;;;;;;9.85;2.33;;;;;;;;;;5019290;28;20524;-69
2023/07/05 08:49:55;;;;;;;4.60;2.38;;;;;;;;;;5024111;28;20151;-69
2023/07/05 08:52:27;;;;;;;6.28;1.60;;;;;;;;;;5020303;28;20048;-69
2023/07/05 08:54:58;;;;;;;4.78;1.80;;;;;;;;;;5021150;28;20635;-69
2023/07/05 08:57:27;;;;;;;5.95;2.17;;;;;;;;;;5031335;28;20184;-69
2023/07/05 08:59:57;;;;;;;7.97;3.03;;;;;;;;;;5036836;28;20104;-69
2023/07/05 09:02:24;;;;;;;5.57;2.70;;;;;;;;;;5022142;28;20104;-68
2023/07/05 09:04:50;;;;;;;5.50;2.50;;;;;;;;;;5023334;28;20112;-69
2023/07/05 09:07:23;;;;;;;8.63;2.78;;;;;;;;;;5038623;28;20079;-68
2023/07/05 09:09:59;;;;;;;7.45;2.88;;;;;;;;;;5019214;28;20069;-68
2023/07/05 09:12:25;;;;;;;7.18;3.28;;;;;;;;;;5037637;28;20041;-69
2023/07/05 09:15:08;;;;;;;9.77;3.03;;;;;;;;;;5027214;28;20553;-69
2023/07/05 09:18:13;;;;;;;7.78;3.00;;;;;;;;;;5023299;28;20085;-68
2023/07/05 09:20:50;;;;;;;5.97;2.40;;;;;;;;;;5005558;28;20558;-68
2023/07/05 09:23:32;;;;;;;8.95;2.90;;;;;;;;;;4991772;28;20598;-68
2023/07/05 09:26:02;;;;;;;7.55;2.88;;;;;;;;;;5014877;28;20056;-68
2023/07/05 09:28:43;;;;;;;5.22;1.85;;;;;;;;;;5025743;28;20038;-68
2023/07/05 09:31:13;;;;;;;4.63;1.83;;;;;;;;;;5026318;28;20029;-68
2023/07/05 09:33:44;;;;;;;9.23;2.40;;;;;;;;;;5020880;28;20044;-69
2023/07/05 09:36:23;;;;;;;4.55;1.35;;;;;;;;;;5027062;28;20155;-68
2023/07/05 09:38:53;;;;;;;2.30;1.20;;;;;;;;;;5036848;28;20446;-69
2023/07/05 09:41:23;;;;;;;2.97;1.38;;;;;;;;;;5034760;28;20057;-68
2023/07/05 09:43:50;;;;;;;3.53;1.30;;;;;;;;;;5027535;28;20128;-68
2023/07/05 09:46:34;;;;;;;6.05;1.90;;;;;;;;;;5024439;28;20076;-68
2023/07/05 09:49:00;;;;;;;2.78;1.25;;;;;;;;;;5024710;28;20045;-68
2023/07/05 09:51:27;;;;;;;2.53;0.85;;;;;;;;;;5035566;28;20650;-68
2023/07/05 09:53:56;;;;;;;1.13;0.68;;;;;;;;;;5027110;28;20455;-68
2023/07/05 09:56:30;;;;;;;2.08;1.08;;;;;;;;;;5029155;28;20089;-68
2023/07/05 09:59:07;;;;;;;1.63;0.90;;;;;;;;;;5019723;28;20041;-68
2023/07/05 10:01:34;;;;;;;1.92;0.70;;;;;;;;;;5022554;28;20099;-68
2023/07/05 10:04:03;;;;;;;3.50;0.95;;;;;;;;;;5023121;28;20061;-68
2023/07/05 10:06:29;;;;;;;2.67;1.00;;;;;;;;;;5020029;28;20448;-69
2023/07/05 10:08:56;;;;;;;3.45;1.20;;;;;;;;;;5036021;28;20042;-68
2023/07/05 10:11:24;;;;;;;2.30;1.00;;;;;;;;;;5020752;28;20093;-68
2023/07/05 10:14:12;;;;;;;3.95;0.75;;;;;;;;;;5036196;28;20103;-68
2023/07/05 10:16:48;;;;;;;3.40;1.63;;;;;;;;;;5019740;28;20046;-68
2023/07/05 10:19:20;;;;;;;8.15;1.15;;;;;;;;;;5008279;28;20072;-69
2023/07/05 10:21:52;;;;;;;1.52;0.70;;;;;;;;;;5023262;28;20049;-69
2023/07/05 10:24:20;;;;;;;1.98;0.60;;;;;;;;;;5033550;28;20121;-68
2023/07/05 10:26:52;;;;;;;3.00;0.75;;;;;;;;;;5024999;28;20041;-69
2023/07/05 10:29:20;;;;;;;3.78;0.90;;;;;;;;;;5033023;28;20056;-69
2023/07/05 10:31:56;;;;;;;1.70;0.70;;;;;;;;;;5021020;28;20479;-68
2023/07/05 10:34:23;;;;;;;2.20;0.65;;;;;;;;;;5025920;28;20069;-68
2023/07/05 10:36:50;;;;;;;2.05;0.82;;;;;;;;;;5021824;28;20042;-68
2023/07/05 10:39:21;;;;;;;1.50;0.70;;;;;;;;;;5019425;28;20103;-68
2023/07/05 10:41:48;;;;;;;3.08;1.13;;;;;;;;;;4974435;28;20046;-68
2023/07/05 10:44:24;;;;;;;1.17;0.70;;;14.60;99.90;;;;;;5007312;28;20065;-68
2023/07/05 10:46:51;;;;;;;2.17;0.90;;;;;;;;;;4997128;28;20039;-68
2023/07/05 10:49:18;;;;;;;3.05;0.85;;;;;;;;;;5014813;28;20779;-68
2023/07/05 10:51:50;;;;;;;1.88;1.02;;;;;;;;;;5017749;28;20037;-68
2023/07/05 10:54:29;;;;;;;1.83;0.95;;;;;;;;;;5023078;28;20033;-68
2023/07/05 10:56:55;;;;;;;1.98;0.90;;;;;;;;;;5024599;28;20147;-68
2023/07/05 10:59:26;;;;;;;1.08;0.73;;;17.30;99.90;;;;;;5022427;28;20034;-68
2023/07/05 11:01:57;;;;;;;1.92;0.70;;;17.80;99.90;;;;;;5025673;28;20634;-68
2023/07/05 11:04:28;;;;;;;1.48;0.85;;;;;;;;;;5023892;28;20045;-68
2023/07/05 11:07:00;;;;;;;1.90;0.90;;;;;;;;;;5024004;28;20054;-68
2023/07/05 11:09:28;;;;;;;4.20;0.95;;;;;;;;;;5029361;28;20115;-68
2023/07/05 11:11:57;;;;;;;2.33;1.13;;;;;;;;;;5024638;28;20034;-68
2023/07/05 11:14:24;;;;;;;1.95;1.00;;;;;;;;;;5024090;28;20199;-68
2023/07/05 11:16:51;;;;;;;2.78;1.20;;;;;;;;;;5024872;28;20128;-68
2023/07/05 11:19:20;;;;;;;5.20;1.13;;;;;;;;;;5023216;28;20038;-68
2023/07/05 11:21:50;;;;;;;2.20;1.10;;;;;;;;;;5027613;28;20116;-68
2023/07/05 11:24:32;;;;;;;3.88;1.60;;;;;;;;;;5029734;28;20038;-68
2023/07/05 11:26:58;;;;;;;2.45;1.23;;;;;;;;;;5025644;28;20043;-68
2023/07/05 11:29:27;;;;;;;6.88;1.75;;;;;;;;;;5043657;28;20037;-68
2023/07/05 11:31:53;;;;;;;6.38;1.60;;;;;;;;;;5026160;28;20038;-68
2023/07/05 11:34:25;;;;;;;4.85;2.00;;;;;;;;;;5026482;28;20474;-68
2023/07/05 11:37:15;;;;;;;8.60;1.88;;;;;;;;;;5027377;28;20443;-68
2023/07/05 11:39:43;;;;;;;6.55;2.67;;;;;;;;;;5025843;28;20049;-68
2023/07/05 11:42:15;;;;;;;8.07;2.67;;;;;;;;;;5023022;28;20039;-68
2023/07/05 11:44:45;;;;;;;8.27;3.23;;;;;;;;;;5040017;28;20467;-68
2023/07/05 11:47:21;;;;;;;9.90;3.08;;;;;;;;;;5021793;28;20051;-68
2023/07/05 11:49:48;;;;;;;6.80;3.28;;;;;;;;;;5019700;28;20038;-68
2023/07/05 11:52:29;;;;;;;11.68;4.10;;;;;;;;;;5020288;28;20065;-68
2023/07/05 11:55:04;;;;;;;11.43;4.97;;;;;;;;;;5018472;28;20045;-69
2023/07/05 11:57:43;;;;;;;13.93;3.97;;;;;;;;;;5018303;28;20037;-67
2023/07/05 12:00:21;;;;;;;11.13;3.58;;;;;;;;;;5023638;28;20037;-68
2023/07/05 12:02:47;;;;;;;12.13;3.92;;;;;;;;;;5018198;28;20084;-67
2023/07/05 12:05:15;;;;;;;12.50;3.67;;;;;;;;;;5023123;28;20056;-68
2023/07/05 12:07:42;;;;;;;8.68;3.40;;;;;;;;;;5020749;28;20487;-67
2023/07/05 12:10:16;;;;;;;9.73;3.47;;;17.90;99.90;;;;;;5027884;28;20497;-68
2023/07/05 12:12:42;;;;;;;7.75;3.33;;;;;;;;;;5023254;28;20667;-67
2023/07/05 12:15:10;;;;;;;10.98;3.50;;;;;;;;;;5028936;28;20053;-68
2023/07/05 12:17:38;;;;;;;9.23;2.42;;;;;;;;;;5019884;28;20472;-68
2023/07/05 12:20:07;;;;;;;6.13;2.97;;;;;;;;;;5042648;28;20617;-68
2023/07/05 12:22:33;;;;;;;7.45;2.75;;;;;;;;;;5026760;28;20116;-68
2023/07/05 12:25:00;;;;;;;3.40;2.22;;;;;;;;;;5030337;28;20049;-68
2023/07/05 12:27:30;;;;;;;8.23;2.58;;;;;;;;;;5019991;28;20085;-67
2023/07/05 12:29:57;;;;;;;8.23;2.63;;;;;;;;;;5026719;28;20143;-67
2023/07/05 12:32:24;;;;;;;9.82;2.97;;;;;;;;;;5024118;28;20098;-67
2023/07/05 12:35:06;;;;;;;6.40;2.45;;;;;;;;;;5039916;28;20533;-67
2023/07/05 12:37:33;;;;;;;8.80;2.58;;;;;;;;;;5025375;28;20065;-67
2023/07/05 12:40:20;;;;;;;10.35;3.40;;;;;;;;;;5035713;28;20498;-66
2023/07/05 12:42:56;;;;;;;10.18;2.70;;;;;;;;;;5022348;28;20038;-67
2023/07/05 12:45:31;;;;;;;10.48;3.65;;;17.60;99.90;;;;;;5037324;28;20087;-67
2023/07/05 12:47:57;;;;;;;9.07;2.95;;;;;;;;;;5021767;28;20241;-67
2023/07/05 12:50:24;;;;;;;10.60;3.22;;;;;;;;;;5018719;28;20132;-67
2023/07/05 12:53:07;;;;;;;13.35;3.20;;;;;;;;;;5021626;28;20375;-67
2023/07/05 12:55:35;;;;;;;13.57;4.75;;;;;;;;;;5014531;28;20045;-67
2023/07/05 12:58:03;;;;;;;10.52;3.63;;;;;;;;;;5013671;28;20173;-67
2023/07/05 13:00:29;;;;;;;8.93;3.38;;;16.90;99.90;;;;;;5021909;28;20082;-68
2023/07/05 13:02:59;;;;;;;10.50;3.78;;;16.50;99.90;;;;;;5015366;28;20064;-67
2023/07/05 13:05:24;;;;;;;9.80;3.67;;;16.50;99.90;;;;;;5042432;28;20276;-67
2023/07/05 13:07:53;;;;;;;12.63;5.32;;;16.40;99.90;;;;;;5038567;28;20414;-67
2023/07/05 13:10:20;;;;;;;11.63;3.58;;;16.40;99.90;;;;;;5025800;28;20049;-67
2023/07/05 13:12:58;;;;;;;13.68;4.72;;;16.40;99.90;;;;;;5020687;28;20172;-67
2023/07/05 13:15:37;;;;;;;14.93;3.97;;;16.30;99.90;;;;;;5019948;28;20045;-67
2023/07/05 13:18:34;;;;;;;11.95;4.38;;;16.30;99.90;;;;;;5022118;28;20053;-68
2023/07/05 13:21:11;;;;;;;11.45;4.50;;;16.30;99.90;;;;;;5034674;28;20044;-67
2023/07/05 13:23:47;;;;;;;9.88;3.75;;;;;;;;;;5022198;28;20042;-66
2023/07/05 13:26:30;;;;;;;16.83;4.38;;;;;;;;;;5025737;28;20045;-67
2023/07/05 13:28:56;;;;;;;10.40;3.83;;;;;;;;;;5025251;28;20095;-67
2023/07/05 13:31:23;;;;;;;10.85;3.90;;;;;;;;;;5024605;28;20107;-67
2023/07/05 13:33:53;;;;;;;11.02;3.10;;;;;;;;;;5026867;28;20802;-67
2023/07/05 13:36:19;;;;;;;7.78;2.88;;;;;;;;;;5046619;28;20676;-67
2023/07/05 13:38:45;;;;;;;12.52;3.92;;;;;;;;;;5019331;28;20107;-67
2023/07/05 13:41:11;;;;;;;9.98;4.13;;;;;;;;;;5023181;28;20472;-67
2023/07/05 13:43:37;;;;;;;12.38;4.20;;;;;;;;;;5034980;28;20120;-67
2023/07/05 13:46:04;;;;;;;14.43;3.40;;;;;;;;;;5039640;28;20073;-67
2023/07/05 13:48:30;;;;;;;7.70;3.50;;;;;;;;;;5021856;28;20044;-67
2023/07/05 13:50:56;;;;;;;9.80;3.60;;;;;;;;;;5019042;28;20095;-67
2023/07/05 13:53:25;;;;;;;8.25;3.70;;;;;;;;;;5032921;28;20064;-67
2023/07/05 13:55:52;;;;;;;10.68;4.13;;;;;;;;;;5022676;28;20136;-67
2023/07/05 13:58:18;;;;;;;12.43;4.35;;;;;;;;;;5038219;28;20437;-67
2023/07/05 14:00:47;;;;;;;12.25;4.50;;;;;;;;;;5025582;28;20338;-67
2023/07/05 14:03:13;;;;;;;9.63;4.43;;;;;;;;;;5028325;28;20049;-67
2023/07/05 14:05:40;;;;;;;11.00;3.45;;;;;;;;;;5023109;28;20079;-67
2023/07/05 14:08:07;;;;;;;10.65;3.70;;;;;;;;;;5039979;28;20068;-67
2023/07/05 14:10:34;;;;;;;9.48;3.40;;;;;;;;;;5027119;28;20601;-67
2023/07/05 14:13:01;;;;;;;8.55;2.80;;;;;;;;;;5025081;28;20090;-67
2023/07/05 14:15:33;;;;;;;10.07;3.25;;;;;;;;;;5038349;28;20166;-67
2023/07/05 14:17:59;;;;;;;7.78;2.88;;;;;;;;;;5029742;28;20394;-67
2023/07/05 14:20:30;;;;;;;7.72;2.85;;;;;;;;;;5028425;28;20038;-67
2023/07/05 14:22:59;;;;;;;7.32;3.33;;;;;;;;;;5031902;28;20367;-67
2023/07/05 14:25:26;;;;;;;5.90;3.22;;;;;;;;;;5024647;28;20050;-67
2023/07/05 14:27:52;;;;;;;13.52;3.00;;;;;;;;;;5026336;28;20048;-68
2023/07/05 14:30:18;;;;;;;7.53;3.00;;;;;;;;;;5026830;28;20046;-68
2023/07/05 14:32:44;;;;;;;6.35;3.20;;;;;;;;;;5043291;28;20052;-68
2023/07/05 14:35:19;;;;;;;4.85;2.45;;;;;;;;;;5025788;28;20034;-68
2023/07/05 14:37:46;;;;;;;7.40;2.42;;;;;;;;;;5027756;28;20041;-69
2023/07/05 14:40:13;;;;;;;4.80;1.95;;;;;;;;;;5026458;28;20041;-68
2023/07/05 14:42:40;;;;;;;4.55;1.67;;;;;;;;;;5033542;28;20179;-68